Biggsville, IL (61418)

6:31 PM CDT on June 26, 2017 (GMT -0500)
Frontline Genetics | | Change Station

Elev 580 ft 40.94 °N, 90.93 °W | Updated 3 seconds ago

Mostly Cloudy
Mostly Cloudy
78.3 °F
Feels Like 79 °F
N
2.0
Wind Variable Wind from SSW

Today
High -- | Low -- °F
--% Chance of Precip.
Yesterday
High -- | Low -- °F
Precip. -- in
Pressure 30.09 in
Visibility 4.0 miles
Clouds Few 5500 ft
Mostly Cloudy 9000 ft
Overcast 11000 ft
Heat Index 79 °F
Dew Point 55 °F
Humidity 45%
Rainfall 0.00 in
Snow Depth Not available.
5:33 AM 8:39 PM
Waxing Crescent, 12% visible
METAR KBRL 262253Z AUTO 34008G20KT 4SM RA FEW055 BKN090 OVC110 17/10 A3009 RMK AO2 RAB40 SLP189 P0003 T01670100
Pressure 30.09 in
Visibility 4.0 miles
Clouds Few 5500 ft
Mostly Cloudy 9000 ft
Overcast 11000 ft
Heat Index 79 °F
Dew Point 55 °F
Humidity 45%
Rainfall 0.00 in
Snow Depth Not available.
5:33 AM 8:39 PM
Waxing Crescent, 12% visible
METAR KBRL 262253Z AUTO 34008G20KT 4SM RA FEW055 BKN090 OVC110 17/10 A3009 RMK AO2 RAB40 SLP189 P0003 T01670100

Get Severe Weather Alerts

Thanks for signing up!

Be on the lookout for a verification email in your inbox.

You'll start receiving the daily forecast at 6 AM.

×

10-Day Weather Forecast

Almanac

Astronomy

Jun. 26, 2017 Rise Set
Actual Time
Civil Twilight
Nautical Twilight
Astronomical Twilight
Moon
Length of Visible Light
Length of Day
Tomorrow will be .
, % of the Moon is Illuminated

Today's Extremes

State Highs State Lows

Community

WunderPhotos

Category 6

Welcome to Category 6. This is the collective home for Weather Underground's featured writeups by Dr. Jeff Masters (right), Bob Henson (left), Chris Burt, and other regular contributors.

Nearby

Air Quality

  Air Quality AQ Index Pollutant
Not available.

Snow Depth

Station Depth Elevation

Earthquake Activity

City Distance Mag. Time & Date
Minimum magnitude displayed is 2.5.

Coastal Water Temperatures

Place Temperature

Stations

Nearby Weather Stations

Station Location Temp. Windchill Dew Point Humidity Wind Precip. Elev Updated Type
                   

Watches & Warnings

There are currently no watches in effect.